Atlantic City, New Jersey
Current Conditions -  °F | °C
As of 2:54 PM on Wednesday 28 Jan 2015 (Local Time) from KACY Reporting Station
Clear Clear  
Wind Chill: 22°   Ceiling: Unl
Heat Index: 33°   Visibility: 10mi
Dew Point: 10°   Wind: 20mph
Humidity: 38%   Direction: 310°NW
Pressure: 30.1"   Gusts: 28mph
Location:  39.36°N, 74.43°W
Report Text: KACY 281954Z 31017G24KT 10SM CLR 01/M12 A3010 RMK AO2 SLP194 T00061122
Loading
Personal Weather Stations






























Interactive Weather Map New forecast layout! Learn more

10-Day Weather Forecast

Advertisements
Track Severe Weather on mobile